Time;durP1;ratioP1;P1;durP2;ratioP2;P2;SDS_P1;SDS_P2;PMS_P1;PMS_P2;Temp;Humidity;BMP_temperature;BMP_pressure;BME280_temperature;BME280_humidity;BME280_pressure;Samples;Min_cycle;Max_cycle;Signal;HPM_P1;HPM_P2
2021/10/14 00:00:55;;;;;;;17.20;12.27;;;;;;;7.81;72.08;101294.31;4988216;28;20396;-62
2021/10/14 00:03:21;;;;;;;17.13;10.35;;;;;;;7.90;71.57;101287.09;4989201;28;20418;-65
2021/10/14 00:05:46;;;;;;;16.75;10.40;;;;;;;7.97;71.12;101295.56;4987677;28;20054;-63
2021/10/14 00:08:12;;;;;;;16.52;10.82;;;;;;;7.92;71.76;101294.88;4988290;28;20124;-65
2021/10/14 00:10:37;;;;;;;16.10;10.48;;;;;;;7.79;71.98;101293.03;4988800;28;20049;-65
2021/10/14 00:13:03;;;;;;;18.08;11.13;;;;;;;7.84;71.60;101290.19;4988814;28;20082;-63
2021/10/14 00:15:28;;;;;;;16.15;10.98;;;;;;;7.83;71.59;101292.09;4988822;28;20055;-63
2021/10/14 00:17:53;;;;;;;16.55;10.60;;;;;;;7.76;71.83;101280.13;4989546;28;20030;-65
2021/10/14 00:20:19;;;;;;;19.20;10.90;;;;;;;7.70;71.55;101295.63;4989999;28;20042;-63
2021/10/14 00:22:44;;;;;;;16.40;10.73;;;;;;;7.73;72.27;101297.72;4990440;28;20101;-64
2021/10/14 00:25:10;;;;;;;16.70;10.43;;;;;;;7.72;72.04;101304.22;4990456;28;20038;-64
2021/10/14 00:27:35;;;;;;;17.38;10.93;;;;;;;7.70;71.64;101303.72;4990476;28;20042;-64
2021/10/14 00:30:01;;;;;;;16.80;10.65;;;;;;;7.68;72.34;101312.09;4990361;28;20042;-65
2021/10/14 00:32:26;;;;;;;16.10;10.60;;;;;;;7.64;72.37;101302.22;4990296;28;20034;-65
2021/10/14 00:34:51;;;;;;;17.67;10.95;;;;;;;7.64;72.31;101304.91;4990287;28;20553;-64
2021/10/14 00:37:17;;;;;;;14.90;10.05;;;;;;;7.53;72.52;101304.34;4990944;28;20046;-64
2021/10/14 00:39:42;;;;;;;15.82;11.00;;;;;;;7.72;71.71;101312.28;4990725;28;20034;-64
2021/10/14 00:42:08;;;;;;;17.45;11.05;;;;;;;7.63;72.87;101309.50;4990385;28;20053;-63
2021/10/14 00:44:53;;;;;;;15.27;10.75;;;;;;;7.74;72.56;101308.19;4990066;28;20519;-62
2021/10/14 00:47:25;;;;;;;16.05;10.65;;;;;;;7.88;71.99;101318.94;4988798;28;20133;-65
2021/10/14 00:49:51;;;;;;;14.05;10.38;;;;;;;7.86;71.93;101320.31;4988013;28;20046;-61
2021/10/14 00:52:16;;;;;;;16.17;11.02;;;;;;;7.81;72.12;101321.25;4990575;28;20078;-65
2021/10/14 00:54:43;;;;;;;15.73;10.43;;;;;;;7.84;71.57;101322.53;4989997;28;20515;-64
2021/10/14 00:57:08;;;;;;;14.98;10.23;;;;;;;7.82;71.73;101301.28;4970041;28;20055;-66
2021/10/14 00:59:34;;;;;;;15.88;10.70;;;;;;;7.95;71.71;101313.09;4990621;28;20403;-63
2021/10/14 01:02:00;;;;;;;15.95;10.45;;;;;;;7.89;72.02;101317.84;4992513;28;20071;-64
2021/10/14 01:04:25;;;;;;;17.08;10.77;;;;;;;7.89;71.74;101314.34;4994869;28;20049;-62
2021/10/14 01:06:50;;;;;;;17.00;10.98;;;;;;;7.84;71.63;101312.53;4993960;28;20053;-63
2021/10/14 01:09:16;;;;;;;19.75;10.40;;;;;;;7.87;71.52;101320.03;4992552;28;20050;-64
2021/10/14 01:11:41;;;;;;;13.63;10.07;;;;;;;7.82;71.60;101301.28;4993670;28;20038;-66
2021/10/14 01:14:07;;;;;;;17.83;10.73;;;;;;;7.74;71.70;101310.09;4992353;28;20042;-62
2021/10/14 01:16:42;;;;;;;15.27;11.18;;;;;;;7.72;73.18;101323.84;4993258;28;20471;-63
2021/10/14 01:19:08;;;;;;;18.23;10.43;;;;;;;7.65;72.16;101325.38;4992282;28;20042;-64
2021/10/14 01:21:34;;;;;;;17.00;10.73;;;;;;;7.66;72.70;101325.06;4993251;28;20053;-65
2021/10/14 01:23:59;;;;;;;16.60;11.05;;;;;;;7.69;72.24;101326.38;4993628;28;20043;-63
2021/10/14 01:26:25;;;;;;;17.23;10.88;;;;;;;7.67;72.31;101328.53;4993306;28;20050;-62
2021/10/14 01:28:51;;;;;;;16.10;11.27;;;;;;;7.57;73.07;101304.53;4992877;28;20528;-65
2021/10/14 01:31:16;;;;;;;20.05;11.52;;;;;;;7.63;72.71;101322.19;4993354;28;20038;-66
2021/10/14 01:33:44;;;;;;;15.65;10.45;;;;;;;7.50;72.70;101321.13;4993201;28;20031;-65
2021/10/14 01:36:09;;;;;;;18.80;10.98;;;;;;;7.38;73.01;101308.16;4992953;28;20511;-67
2021/10/14 01:38:35;;;;;;;17.38;11.38;;;;;;;7.44;72.69;101325.00;4992068;28;20050;-64
2021/10/14 01:41:00;;;;;;;15.60;11.25;;;;;;;7.33;73.09;101332.50;4993240;28;20046;-63
2021/10/14 01:43:26;;;;;;;16.67;11.40;;;;;;;7.18;74.02;101324.72;4993203;28;20376;-66
2021/10/14 01:45:51;;;;;;;17.95;11.35;;;;;;;7.20;74.12;101337.88;4990674;28;20116;-66
2021/10/14 01:48:16;;;;;;;20.52;12.25;;;;;;;7.03;74.93;101338.47;4992879;28;20116;-65
2021/10/14 01:50:42;;;;;;;19.58;10.70;;;;;;;7.15;74.82;101338.78;4992797;28;20517;-64
2021/10/14 01:53:08;;;;;;;20.10;11.68;;;;;;;7.19;74.31;101345.13;4992895;28;20054;-66
2021/10/14 01:55:33;;;;;;;19.65;11.35;;;;;;;7.27;74.44;101349.84;4992685;28;20042;-64
2021/10/14 01:57:59;;;;;;;16.27;11.13;;;;;;;7.18;74.98;101345.44;4993116;28;20054;-63
2021/10/14 02:00:24;;;;;;;17.15;10.93;;;;;;;7.22;75.04;101349.16;4992566;28;20057;-63
2021/10/14 02:02:50;;;;;;;15.20;10.40;;;;;;;7.26;75.16;101342.84;4991576;28;20115;-66
2021/10/14 02:05:15;;;;;;;18.30;10.75;;;;;;;7.34;75.25;101352.13;4993099;28;20045;-64
2021/10/14 02:07:40;;;;;;;17.88;11.20;;;;;;;7.16;74.23;101300.78;4992494;28;20034;-63
2021/10/14 02:10:06;;;;;;;15.40;9.77;;;;;;;7.53;74.10;101355.50;4992241;28;20506;-63
2021/10/14 02:12:31;;;;;;;14.95;10.18;;;;;;;7.73;73.94;101352.38;4992503;28;20041;-62
2021/10/14 02:14:57;;;;;;;17.67;10.38;;;;;;;7.76;73.83;101350.19;4992549;28;20049;-68
2021/10/14 02:17:22;;;;;;;14.98;10.00;;;;;;;7.83;72.80;101345.97;4992503;28;20069;-67
2021/10/14 02:19:48;;;;;;;15.75;10.77;;;;;;;7.85;72.92;101351.06;4991497;28;20046;-64
2021/10/14 02:22:13;;;;;;;15.85;10.13;;;;;;;7.89;72.38;101357.47;4991752;28;20045;-64
2021/10/14 02:24:39;;;;;;;14.13;9.55;;;;;;;7.96;72.32;101355.16;4991608;28;20053;-65
2021/10/14 02:27:04;;;;;;;16.33;10.32;;;;;;;7.85;72.52;101341.09;4992505;28;20050;-64
2021/10/14 02:29:30;;;;;;;15.13;9.73;;;;;;;7.91;72.77;101353.34;4992610;28;20108;-62
2021/10/14 02:31:55;;;;;;;14.63;10.27;;;;;;;7.96;72.58;101353.25;4992403;28;20053;-66
2021/10/14 02:34:21;;;;;;;17.67;11.48;;;;;;;8.00;72.58;101359.63;4992381;28;20050;-67
2021/10/14 02:36:46;;;;;;;15.02;10.27;;;;;;;7.79;73.33;101355.78;4992848;28;20037;-65
2021/10/14 02:39:12;;;;;;;16.65;11.20;;;;;;;7.88;72.62;101353.97;4992736;28;20042;-63
2021/10/14 02:41:38;;;;;;;15.48;11.15;;;;;;;7.97;72.71;101356.75;4992488;28;20046;-64
2021/10/14 02:44:04;;;;;;;17.08;11.45;;;;;;;8.01;72.85;101358.50;4992115;28;20053;-63
2021/10/14 02:46:29;;;;;;;16.48;10.95;;;;;;;7.87;73.04;101354.28;4992039;28;20034;-63
2021/10/14 02:48:55;;;;;;;15.88;10.65;;;;;;;7.77;72.90;101349.91;4991697;28;20112;-64
2021/10/14 02:51:20;;;;;;;18.35;10.63;;;;;;;7.83;73.56;101362.16;4991915;28;20050;-65
2021/10/14 02:53:45;;;;;;;15.68;10.93;;;;;;;7.81;73.65;101364.34;4992140;28;20381;-64
2021/10/14 02:56:11;;;;;;;18.70;10.43;;;;;;;7.72;73.86;101353.50;4991856;28;20058;-64
2021/10/14 02:58:36;;;;;;;15.35;10.57;;;;;;;7.73;74.01;101373.94;4992119;28;20474;-64
2021/10/14 03:01:02;;;;;;;14.50;10.05;;;;;;;7.68;73.66;101370.56;4992151;28;20065;-63
2021/10/14 03:03:27;;;;;;;14.30;10.35;;;;;;;7.85;73.57;101364.53;4991086;28;20042;-65
2021/10/14 03:05:53;;;;;;;16.95;10.63;;;;;;;7.85;73.45;101375.31;4990821;28;20061;-64
2021/10/14 03:08:18;;;;;;;16.10;10.98;;;;;;;7.82;73.39;101374.03;4991452;28;20034;-61
2021/10/14 03:10:43;;;;;;;15.05;11.55;;;;;;;7.65;73.11;101360.38;4992001;28;20034;-65
2021/10/14 03:13:09;;;;;;;15.90;10.98;;;;;;;7.68;73.79;101381.34;4991584;28;20046;-62
2021/10/14 03:15:34;;;;;;;14.80;11.02;;;;;;;7.82;73.10;101375.94;4991889;28;20058;-64
2021/10/14 03:17:59;;;;;;;14.65;9.55;;;;;;;7.77;73.11;101376.03;4991555;28;20038;-64
2021/10/14 03:20:25;;;;;;;16.35;9.75;;;;;;;7.74;73.43;101374.72;4991765;28;20419;-63
2021/10/14 03:22:50;;;;;;;12.20;9.32;;;;;;;7.78;73.68;101374.94;4991136;28;20435;-63
2021/10/14 03:25:16;;;;;;;14.23;9.40;;;;;;;7.62;74.43;101383.34;4991758;28;20038;-63
2021/10/14 03:27:41;;;;;;;12.88;9.73;;;;;;;7.63;74.82;101376.84;4991524;28;20049;-62
2021/10/14 03:30:07;;;;;;;14.65;9.75;;;;;;;7.59;74.71;101377.75;4991568;28;20109;-63
2021/10/14 03:32:32;;;;;;;15.07;9.70;;;;;;;7.43;75.13;101364.59;4991533;28;20044;-62
2021/10/14 03:34:58;;;;;;;13.32;9.27;;;;;;;7.53;75.15;101376.25;4991270;28;20046;-63
2021/10/14 03:37:23;;;;;;;12.32;7.82;;;;;;;7.54;74.80;101375.97;4991804;28;20089;-63
2021/10/14 03:39:48;;;;;;;12.38;8.32;;;;;;;7.58;74.56;101376.13;4994082;28;20034;-62
2021/10/14 03:42:16;;;;;;;9.88;6.72;;;;;;;7.71;73.59;101384.22;4994271;28;20419;-61
2021/10/14 03:44:41;;;;;;;10.48;7.15;;;;;;;7.76;73.72;101380.63;4991543;28;20459;-63
2021/10/14 03:47:06;;;;;;;10.25;7.20;;;;;;;7.62;73.97;101379.84;4991124;28;20092;-62
2021/10/14 03:49:32;;;;;;;10.48;7.43;;;;;;;7.59;74.52;101380.47;4990838;28;20034;-64
2021/10/14 03:51:57;;;;;;;10.77;7.93;;;;;;;7.52;74.62;101385.44;4990960;28;20046;-68
2021/10/14 03:54:23;;;;;;;14.07;7.90;;;;;;;7.64;73.82;101391.13;4991083;28;20046;-66
2021/10/14 03:56:48;;;;;;;11.80;7.93;;;;;;;7.63;74.33;101382.22;4990883;28;20058;-66
2021/10/14 03:59:13;;;;;;;12.27;8.63;;;;;;;7.66;74.09;101383.53;4991436;28;20506;-66
2021/10/14 04:01:39;;;;;;;13.85;8.38;;;;;;;7.68;74.07;101387.53;4989982;28;20046;-63
2021/10/14 04:04:04;;;;;;;12.07;8.52;;;;;;;7.60;73.29;101382.84;4991105;28;20045;-64
2021/10/14 04:06:29;;;;;;;11.32;7.95;;;;;;;7.50;73.99;101379.56;4990946;28;20435;-63
